Darbydale, Ohio
Current Conditions -  °F | °C
As of 12:50 PM on Wednesday 26 Nov 2014 (Local Time) from KTZR Reporting Station
Overcast Overcast  
Wind Chill: 30°   Ceiling: 3200
Heat Index: 34°   Visibility: 10mi
Dew Point: 27°   Wind: 5mph
Humidity: 75%   Direction: 340°NNW
Pressure: 30.06"   Gusts: NA
Location:  39.8683°N, 83.1183°W
Report Text: KTZR 261750Z 34004KT 10SM OVC032 01/M03 A3006
Loading
Personal Weather Stations






























Interactive Weather Map New forecast layout! Learn more

10-Day Weather Forecast

Advertisements
Track Severe Weather on mobile